sensor_id;sensor_type;location;lat;lon;timestamp;pressure;altitude;pressure_sealevel;temperature;humidity
59274;BME280;45044;41.572;24.730;2023-02-17T00:01:00;92190.47;;;-2.05;100.00
59274;BME280;45044;41.572;24.730;2023-02-17T00:03:27;92195.19;;;-2.12;100.00
59274;BME280;45044;41.572;24.730;2023-02-17T00:05:54;92185.75;;;-2.57;100.00
59274;BME280;45044;41.572;24.730;2023-02-17T00:08:20;92193.44;;;-2.51;100.00
59274;BME280;45044;41.572;24.730;2023-02-17T00:10:57;92194.69;;;-2.44;100.00
59274;BME280;45044;41.572;24.730;2023-02-17T00:13:24;92179.38;;;-2.30;100.00
59274;BME280;45044;41.572;24.730;2023-02-17T00:15:51;92176.75;;;-2.24;100.00
59274;BME280;45044;41.572;24.730;2023-02-17T00:18:18;92178.31;;;-2.29;100.00
59274;BME280;45044;41.572;24.730;2023-02-17T00:20:45;92177.28;;;-2.27;100.00
59274;BME280;45044;41.572;24.730;2023-02-17T00:23:12;92174.53;;;-2.42;100.00
59274;BME280;45044;41.572;24.730;2023-02-17T00:25:38;92156.53;;;-2.42;100.00
59274;BME280;45044;41.572;24.730;2023-02-17T00:28:05;92171.13;;;-2.32;100.00
59274;BME280;45044;41.572;24.730;2023-02-17T00:30:32;92161.91;;;-2.38;100.00
59274;BME280;45044;41.572;24.730;2023-02-17T00:32:59;92169.66;;;-2.43;100.00
59274;BME280;45044;41.572;24.730;2023-02-17T00:35:26;92167.69;;;-2.51;100.00
59274;BME280;45044;41.572;24.730;2023-02-17T00:37:53;92156.78;;;-2.73;100.00
59274;BME280;45044;41.572;24.730;2023-02-17T00:40:19;92160.97;;;-2.47;100.00
59274;BME280;45044;41.572;24.730;2023-02-17T00:42:46;92155.31;;;-2.49;100.00
59274;BME280;45044;41.572;24.730;2023-02-17T00:45:14;92151.00;;;-2.59;100.00
59274;BME280;45044;41.572;24.730;2023-02-17T00:47:41;92151.75;;;-2.54;100.00
59274;BME280;45044;41.572;24.730;2023-02-17T00:50:08;92154.22;;;-2.43;100.00
59274;BME280;45044;41.572;24.730;2023-02-17T00:52:35;92151.38;;;-2.42;100.00
59274;BME280;45044;41.572;24.730;2023-02-17T00:55:02;92137.94;;;-2.68;100.00
59274;BME280;45044;41.572;24.730;2023-02-17T00:57:29;92152.38;;;-2.67;100.00
59274;BME280;45044;41.572;24.730;2023-02-17T00:59:57;92143.84;;;-2.62;100.00
59274;BME280;45044;41.572;24.730;2023-02-17T01:02:24;92144.16;;;-2.69;100.00
59274;BME280;45044;41.572;24.730;2023-02-17T01:04:52;92140.75;;;-2.65;100.00
59274;BME280;45044;41.572;24.730;2023-02-17T01:07:18;92137.41;;;-2.65;100.00
59274;BME280;45044;41.572;24.730;2023-02-17T01:09:45;92129.63;;;-2.60;100.00
59274;BME280;45044;41.572;24.730;2023-02-17T01:12:12;92142.50;;;-2.55;100.00
59274;BME280;45044;41.572;24.730;2023-02-17T01:14:39;92124.19;;;-2.53;100.00
59274;BME280;45044;41.572;24.730;2023-02-17T01:17:05;92132.81;;;-2.68;100.00
59274;BME280;45044;41.572;24.730;2023-02-17T01:19:32;92129.31;;;-2.83;100.00
59274;BME280;45044;41.572;24.730;2023-02-17T01:21:59;92123.13;;;-2.82;100.00
59274;BME280;45044;41.572;24.730;2023-02-17T01:24:26;92124.13;;;-2.78;100.00
59274;BME280;45044;41.572;24.730;2023-02-17T01:26:53;92120.88;;;-2.94;100.00
59274;BME280;45044;41.572;24.730;2023-02-17T01:29:20;92109.81;;;-2.89;100.00
59274;BME280;45044;41.572;24.730;2023-02-17T01:31:47;92114.94;;;-2.89;100.00
59274;BME280;45044;41.572;24.730;2023-02-17T01:34:14;92115.47;;;-2.92;100.00
59274;BME280;45044;41.572;24.730;2023-02-17T01:36:40;92106.72;;;-2.91;100.00
59274;BME280;45044;41.572;24.730;2023-02-17T01:39:08;92105.22;;;-2.97;100.00
59274;BME280;45044;41.572;24.730;2023-02-17T01:41:37;92101.34;;;-2.95;100.00
59274;BME280;45044;41.572;24.730;2023-02-17T01:44:16;92101.78;;;-3.22;100.00
59274;BME280;45044;41.572;24.730;2023-02-17T01:46:46;92112.22;;;-3.49;100.00
59274;BME280;45044;41.572;24.730;2023-02-17T01:51:53;92101.81;;;-3.28;100.00
59274;BME280;45044;41.572;24.730;2023-02-17T01:54:39;92109.00;;;-3.25;100.00
59274;BME280;45044;41.572;24.730;2023-02-17T01:57:09;92101.31;;;-3.30;100.00
59274;BME280;45044;41.572;24.730;2023-02-17T01:59:37;92095.13;;;-3.29;100.00
59274;BME280;45044;41.572;24.730;2023-02-17T02:02:04;92093.81;;;-3.21;100.00
59274;BME280;45044;41.572;24.730;2023-02-17T02:04:34;92096.84;;;-3.14;100.00
59274;BME280;45044;41.572;24.730;2023-02-17T02:07:05;92088.94;;;-3.22;100.00
59274;BME280;45044;41.572;24.730;2023-02-17T02:09:39;92085.63;;;-3.28;100.00
59274;BME280;45044;41.572;24.730;2023-02-17T02:12:20;92079.91;;;-3.20;100.00
59274;BME280;45044;41.572;24.730;2023-02-17T02:14:48;92084.59;;;-3.27;100.00
59274;BME280;45044;41.572;24.730;2023-02-17T02:23:43;92090.47;;;-3.21;100.00
59274;BME280;45044;41.572;24.730;2023-02-17T02:34:46;92081.88;;;-3.06;100.00
59274;BME280;45044;41.572;24.730;2023-02-17T02:37:24;92090.47;;;-3.21;100.00
59274;BME280;45044;41.572;24.730;2023-02-17T02:39:53;92083.25;;;-3.19;100.00
59274;BME280;45044;41.572;24.730;2023-02-17T02:42:22;92086.56;;;-3.14;100.00
59274;BME280;45044;41.572;24.730;2023-02-17T02:44:50;92094.41;;;-2.99;100.00
59274;BME280;45044;41.572;24.730;2023-02-17T02:53:11;92087.03;;;-3.06;100.00
59274;BME280;45044;41.572;24.730;2023-02-17T03:01:42;92093.22;;;-3.07;100.00
59274;BME280;45044;41.572;24.730;2023-02-17T03:04:18;92085.22;;;-3.06;100.00
59274;BME280;45044;41.572;24.730;2023-02-17T03:06:55;92090.72;;;-3.23;100.00
59274;BME280;45044;41.572;24.730;2023-02-17T03:09:26;92099.16;;;-3.12;100.00
59274;BME280;45044;41.572;24.730;2023-02-17T03:11:55;92093.91;;;-3.02;100.00
59274;BME280;45044;41.572;24.730;2023-02-17T03:14:23;92086.00;;;-3.10;100.00
59274;BME280;45044;41.572;24.730;2023-02-17T03:16:51;92090.41;;;-3.11;100.00
59274;BME280;45044;41.572;24.730;2023-02-17T03:19:21;92083.63;;;-3.02;100.00
59274;BME280;45044;41.572;24.730;2023-02-17T03:22:02;92091.56;;;-2.98;100.00
59274;BME280;45044;41.572;24.730;2023-02-17T03:24:31;92088.75;;;-2.96;100.00
59274;BME280;45044;41.572;24.730;2023-02-17T03:26:59;92094.69;;;-3.01;100.00
59274;BME280;45044;41.572;24.730;2023-02-17T03:29:25;92093.53;;;-3.19;100.00
59274;BME280;45044;41.572;24.730;2023-02-17T03:31:52;92094.28;;;-3.14;100.00
59274;BME280;45044;41.572;24.730;2023-02-17T03:34:19;92101.63;;;-3.02;100.00
59274;BME280;45044;41.572;24.730;2023-02-17T03:36:46;92090.19;;;-3.15;100.00
59274;BME280;45044;41.572;24.730;2023-02-17T03:39:13;92094.00;;;-3.12;100.00
59274;BME280;45044;41.572;24.730;2023-02-17T03:41:39;92105.38;;;-3.18;100.00
59274;BME280;45044;41.572;24.730;2023-02-17T03:44:06;92109.59;;;-3.33;100.00
59274;BME280;45044;41.572;24.730;2023-02-17T03:46:34;92103.81;;;-3.19;100.00
59274;BME280;45044;41.572;24.730;2023-02-17T03:49:00;92100.78;;;-3.27;100.00
59274;BME280;45044;41.572;24.730;2023-02-17T03:51:27;92102.53;;;-3.17;100.00
59274;BME280;45044;41.572;24.730;2023-02-17T03:53:54;92087.13;;;-3.22;100.00
59274;BME280;45044;41.572;24.730;2023-02-17T03:56:20;92092.47;;;-3.13;100.00
59274;BME280;45044;41.572;24.730;2023-02-17T03:58:47;92088.00;;;-3.37;100.00
59274;BME280;45044;41.572;24.730;2023-02-17T04:01:14;92091.06;;;-3.35;100.00
59274;BME280;45044;41.572;24.730;2023-02-17T04:03:41;92097.50;;;-3.38;100.00
59274;BME280;45044;41.572;24.730;2023-02-17T04:06:08;92096.00;;;-3.44;100.00
59274;BME280;45044;41.572;24.730;2023-02-17T04:08:36;92097.00;;;-3.34;100.00
59274;BME280;45044;41.572;24.730;2023-02-17T04:11:05;92094.66;;;-3.36;100.00
59274;BME280;45044;41.572;24.730;2023-02-17T04:13:33;92089.00;;;-3.33;100.00
59274;BME280;45044;41.572;24.730;2023-02-17T04:16:00;92089.25;;;-3.29;100.00
59274;BME280;45044;41.572;24.730;2023-02-17T04:18:28;92072.25;;;-3.30;100.00
59274;BME280;45044;41.572;24.730;2023-02-17T04:20:55;92081.25;;;-3.28;100.00
59274;BME280;45044;41.572;24.730;2023-02-17T04:23:21;92082.78;;;-3.27;100.00
59274;BME280;45044;41.572;24.730;2023-02-17T04:25:48;92083.31;;;-3.30;100.00
59274;BME280;45044;41.572;24.730;2023-02-17T04:28:15;92084.56;;;-3.22;100.00
59274;BME280;45044;41.572;24.730;2023-02-17T04:30:47;92076.19;;;-3.38;100.00
59274;BME280;45044;41.572;24.730;2023-02-17T04:33:16;92081.53;;;-3.29;100.00
59274;BME280;45044;41.572;24.730;2023-02-17T04:35:43;92085.34;;;-3.27;100.00
59274;BME280;45044;41.572;24.730;2023-02-17T04:38:10;92091.16;;;-3.51;100.00
59274;BME280;45044;41.572;24.730;2023-02-17T04:40:37;92092.69;;;-3.50;100.00
59274;BME280;45044;41.572;24.730;2023-02-17T04:43:04;92098.06;;;-3.46;100.00
59274;BME280;45044;41.572;24.730;2023-02-17T04:45:31;92078.78;;;-3.49;100.00
59274;BME280;45044;41.572;24.730;2023-02-17T04:47:58;92086.00;;;-3.45;100.00
59274;BME280;45044;41.572;24.730;2023-02-17T04:50:24;92089.53;;;-3.36;100.00
59274;BME280;45044;41.572;24.730;2023-02-17T04:52:51;92099.47;;;-3.69;100.00
59274;BME280;45044;41.572;24.730;2023-02-17T04:55:19;92096.88;;;-3.64;100.00
59274;BME280;45044;41.572;24.730;2023-02-17T04:57:46;92094.53;;;-3.55;100.00
59274;BME280;45044;41.572;24.730;2023-02-17T05:00:13;92097.78;;;-3.39;100.00
59274;BME280;45044;41.572;24.730;2023-02-17T05:02:40;92088.00;;;-3.37;100.00
59274;BME280;45044;41.572;24.730;2023-02-17T05:05:07;92094.41;;;-3.80;100.00
59274;BME280;45044;41.572;24.730;2023-02-17T05:07:34;92099.69;;;-3.61;100.00
59274;BME280;45044;41.572;24.730;2023-02-17T05:10:01;92101.69;;;-3.52;100.00
59274;BME280;45044;41.572;24.730;2023-02-17T05:12:28;92094.69;;;-3.41;100.00
59274;BME280;45044;41.572;24.730;2023-02-17T05:14:54;92104.72;;;-3.40;100.00
59274;BME280;45044;41.572;24.730;2023-02-17T05:17:21;92099.34;;;-3.43;100.00
59274;BME280;45044;41.572;24.730;2023-02-17T05:19:48;92091.56;;;-3.33;100.00
59274;BME280;45044;41.572;24.730;2023-02-17T05:22:15;92093.59;;;-3.30;100.00
59274;BME280;45044;41.572;24.730;2023-02-17T05:24:41;92090.22;;;-3.25;100.00
59274;BME280;45044;41.572;24.730;2023-02-17T05:27:08;92077.28;;;-3.50;100.00
59274;BME280;45044;41.572;24.730;2023-02-17T05:29:35;92089.50;;;-3.31;100.00
59274;BME280;45044;41.572;24.730;2023-02-17T05:32:02;92093.53;;;-3.19;100.00
59274;BME280;45044;41.572;24.730;2023-02-17T05:34:29;92076.31;;;-3.19;100.00
59274;BME280;45044;41.572;24.730;2023-02-17T05:36:56;92088.03;;;-3.02;100.00
59274;BME280;45044;41.572;24.730;2023-02-17T05:39:22;92088.75;;;-2.96;100.00
59274;BME280;45044;41.572;24.730;2023-02-17T05:41:49;92092.72;;;-3.09;100.00
59274;BME280;45044;41.572;24.730;2023-02-17T05:44:17;92079.97;;;-3.30;100.00
59274;BME280;45044;41.572;24.730;2023-02-17T05:46:43;92086.09;;;-3.21;100.00
59274;BME280;45044;41.572;24.730;2023-02-17T05:49:10;92087.25;;;-3.03;100.00
59274;BME280;45044;41.572;24.730;2023-02-17T05:51:37;92102.59;;;-2.92;100.00
59274;BME280;45044;41.572;24.730;2023-02-17T05:54:04;92103.78;;;-2.79;100.00
59274;BME280;45044;41.572;24.730;2023-02-17T05:56:31;92097.09;;;-2.50;100.00
59274;BME280;45044;41.572;24.730;2023-02-17T05:58:58;92099.00;;;-2.32;100.00
59274;BME280;45044;41.572;24.730;2023-02-17T06:01:26;92105.03;;;-2.17;100.00
59274;BME280;45044;41.572;24.730;2023-02-17T06:03:53;92101.31;;;-2.06;100.00
59274;BME280;45044;41.572;24.730;2023-02-17T06:06:20;92097.50;;;-1.89;100.00
59274;BME280;45044;41.572;24.730;2023-02-17T06:08:46;92102.50;;;-1.73;100.00
59274;BME280;45044;41.572;24.730;2023-02-17T06:11:13;92099.44;;;-1.56;100.00
59274;BME280;45044;41.572;24.730;2023-02-17T06:13:40;92103.28;;;-1.34;100.00
59274;BME280;45044;41.572;24.730;2023-02-17T06:16:07;92100.72;;;-1.34;100.00
59274;BME280;45044;41.572;24.730;2023-02-17T06:18:34;92105.81;;;-1.29;100.00
59274;BME280;45044;41.572;24.730;2023-02-17T06:21:01;92104.91;;;-1.19;100.00
59274;BME280;45044;41.572;24.730;2023-02-17T06:23:27;92099.03;;;-1.05;100.00
59274;BME280;45044;41.572;24.730;2023-02-17T06:25:54;92107.75;;;-0.82;100.00
59274;BME280;45044;41.572;24.730;2023-02-17T06:28:21;92105.00;;;-0.71;100.00
59274;BME280;45044;41.572;24.730;2023-02-17T06:30:48;92112.03;;;-0.44;100.00
59274;BME280;45044;41.572;24.730;2023-02-17T06:33:14;92093.34;;;-0.07;100.00
59274;BME280;45044;41.572;24.730;2023-02-17T06:35:41;92098.66;;;0.53;100.00
59274;BME280;45044;41.572;24.730;2023-02-17T06:38:18;92090.44;;;1.11;100.00
59274;BME280;45044;41.572;24.730;2023-02-17T06:40:45;92089.03;;;2.49;100.00
59274;BME280;45044;41.572;24.730;2023-02-17T06:43:12;92065.78;;;3.59;100.00
59274;BME280;45044;41.572;24.730;2023-02-17T06:45:39;92089.94;;;4.38;100.00
59274;BME280;45044;41.572;24.730;2023-02-17T06:48:06;92090.81;;;4.21;100.00
59274;BME280;45044;41.572;24.730;2023-02-17T06:50:33;92089.81;;;4.65;96.39
59274;BME280;45044;41.572;24.730;2023-02-17T06:53:00;92094.00;;;5.00;94.94
59274;BME280;45044;41.572;24.730;2023-02-17T06:55:27;92089.88;;;4.99;94.43
59274;BME280;45044;41.572;24.730;2023-02-17T06:57:53;92081.28;;;5.54;86.96
59274;BME280;45044;41.572;24.730;2023-02-17T07:00:20;92074.97;;;6.51;75.49
59274;BME280;45044;41.572;24.730;2023-02-17T07:02:47;92064.63;;;7.09;71.77
59274;BME280;45044;41.572;24.730;2023-02-17T07:05:14;92068.91;;;7.74;68.38
59274;BME280;45044;41.572;24.730;2023-02-17T07:07:41;92063.91;;;8.66;61.07
59274;BME280;45044;41.572;24.730;2023-02-17T07:10:08;92068.69;;;8.80;62.90
59274;BME280;45044;41.572;24.730;2023-02-17T07:12:35;92082.41;;;7.03;69.37
59274;BME280;45044;41.572;24.730;2023-02-17T07:15:02;92085.56;;;6.30;71.92
59274;BME280;45044;41.572;24.730;2023-02-17T07:17:30;92083.88;;;7.74;64.60
59274;BME280;45044;41.572;24.730;2023-02-17T07:19:56;92085.06;;;8.93;60.90
59274;BME280;45044;41.572;24.730;2023-02-17T07:22:23;92083.31;;;10.04;55.43
59274;BME280;45044;41.572;24.730;2023-02-17T07:24:52;92073.47;;;11.33;52.42
59274;BME280;45044;41.572;24.730;2023-02-17T07:27:19;92074.59;;;12.53;47.33
59274;BME280;45044;41.572;24.730;2023-02-17T07:29:45;92070.50;;;12.67;42.99
59274;BME280;45044;41.572;24.730;2023-02-17T07:32:12;92063.56;;;11.95;44.99
59274;BME280;45044;41.572;24.730;2023-02-17T07:34:39;92096.75;;;10.22;50.55
59274;BME280;45044;41.572;24.730;2023-02-17T07:37:07;92094.28;;;9.86;52.51
59274;BME280;45044;41.572;24.730;2023-02-17T07:39:33;92097.63;;;9.83;53.87
59274;BME280;45044;41.572;24.730;2023-02-17T07:42:01;92088.78;;;10.42;52.37
59274;BME280;45044;41.572;24.730;2023-02-17T07:44:31;92085.59;;;11.41;50.85
59274;BME280;45044;41.572;24.730;2023-02-17T07:46:59;92089.00;;;12.18;48.67
59274;BME280;45044;41.572;24.730;2023-02-17T07:49:26;92091.09;;;12.43;46.54
59274;BME280;45044;41.572;24.730;2023-02-17T07:51:52;92089.53;;;12.94;43.82
59274;BME280;45044;41.572;24.730;2023-02-17T07:54:20;92094.09;;;14.67;42.12
59274;BME280;45044;41.572;24.730;2023-02-17T07:56:47;92083.53;;;14.60;41.59
59274;BME280;45044;41.572;24.730;2023-02-17T07:59:15;92087.09;;;15.54;40.79
59274;BME280;45044;41.572;24.730;2023-02-17T08:01:42;92078.59;;;15.96;40.77
59274;BME280;45044;41.572;24.730;2023-02-17T08:04:09;92082.41;;;16.94;39.05
59274;BME280;45044;41.572;24.730;2023-02-17T08:06:37;92080.47;;;17.99;37.09
59274;BME280;45044;41.572;24.730;2023-02-17T08:09:05;92075.03;;;16.67;38.14
59274;BME280;45044;41.572;24.730;2023-02-17T08:11:50;92067.41;;;17.50;36.21
59274;BME280;45044;41.572;24.730;2023-02-17T08:14:36;92069.94;;;15.80;39.29
59274;BME280;45044;41.572;24.730;2023-02-17T08:17:06;92065.44;;;16.80;38.23
59274;BME280;45044;41.572;24.730;2023-02-17T08:19:33;92069.72;;;16.21;39.17
59274;BME280;45044;41.572;24.730;2023-02-17T08:22:15;92076.78;;;16.84;39.09
59274;BME280;45044;41.572;24.730;2023-02-17T08:24:42;92063.44;;;17.62;37.22
59274;BME280;45044;41.572;24.730;2023-02-17T08:27:09;92070.25;;;16.93;37.10
59274;BME280;45044;41.572;24.730;2023-02-17T08:29:36;92057.53;;;17.15;37.21
59274;BME280;45044;41.572;24.730;2023-02-17T08:32:03;92062.00;;;17.57;35.38
59274;BME280;45044;41.572;24.730;2023-02-17T08:34:30;92056.59;;;16.52;34.94
59274;BME280;45044;41.572;24.730;2023-02-17T08:37:00;92062.84;;;17.50;36.05
59274;BME280;45044;41.572;24.730;2023-02-17T08:39:27;92058.47;;;17.95;33.13
59274;BME280;45044;41.572;24.730;2023-02-17T08:41:54;92064.78;;;18.33;32.31
59274;BME280;45044;41.572;24.730;2023-02-17T08:44:21;92064.41;;;18.58;31.64
59274;BME280;45044;41.572;24.730;2023-02-17T08:46:50;92068.97;;;18.58;33.00
59274;BME280;45044;41.572;24.730;2023-02-17T08:49:20;92061.94;;;18.19;32.63
59274;BME280;45044;41.572;24.730;2023-02-17T08:51:47;92061.69;;;17.82;34.08
59274;BME280;45044;41.572;24.730;2023-02-17T08:54:14;92060.16;;;18.85;32.27
59274;BME280;45044;41.572;24.730;2023-02-17T08:56:42;92058.13;;;18.92;31.86
59274;BME280;45044;41.572;24.730;2023-02-17T08:59:10;92054.28;;;19.95;31.93
59274;BME280;45044;41.572;24.730;2023-02-17T09:01:38;92059.41;;;21.03;30.60
59274;BME280;45044;41.572;24.730;2023-02-17T09:04:07;92055.66;;;21.73;29.78
59274;BME280;45044;41.572;24.730;2023-02-17T09:06:42;92047.25;;;21.87;30.01
59274;BME280;45044;41.572;24.730;2023-02-17T09:09:13;92053.72;;;20.38;28.97
59274;BME280;45044;41.572;24.730;2023-02-17T09:11:40;92041.72;;;19.75;30.44
59274;BME280;45044;41.572;24.730;2023-02-17T09:14:07;92045.34;;;18.60;31.19
59274;BME280;45044;41.572;24.730;2023-02-17T09:16:34;92049.47;;;18.64;32.42
59274;BME280;45044;41.572;24.730;2023-02-17T09:19:01;92050.44;;;19.19;31.48
59274;BME280;45044;41.572;24.730;2023-02-17T09:21:28;92042.75;;;20.99;27.61
59274;BME280;45044;41.572;24.730;2023-02-17T09:23:55;92020.88;;;21.73;27.33
59274;BME280;45044;41.572;24.730;2023-02-17T09:26:22;92030.75;;;21.89;27.95
59274;BME280;45044;41.572;24.730;2023-02-17T09:28:49;92031.53;;;21.47;26.43
59274;BME280;45044;41.572;24.730;2023-02-17T09:33:46;92017.44;;;21.03;27.59
59274;BME280;45044;41.572;24.730;2023-02-17T09:36:21;92025.16;;;21.14;28.13
59274;BME280;45044;41.572;24.730;2023-02-17T09:38:50;92022.78;;;21.59;28.24
59274;BME280;45044;41.572;24.730;2023-02-17T09:43:52;92023.63;;;21.56;26.98
59274;BME280;45044;41.572;24.730;2023-02-17T09:46:29;92012.16;;;20.70;29.01
59274;BME280;45044;41.572;24.730;2023-02-17T09:49:11;92009.22;;;19.97;27.61
59274;BME280;45044;41.572;24.730;2023-02-17T09:51:48;92003.97;;;21.50;27.17
59274;BME280;45044;41.572;24.730;2023-02-17T09:56:52;92002.28;;;21.13;25.96
59274;BME280;45044;41.572;24.730;2023-02-17T09:59:26;92008.13;;;19.78;25.72
59274;BME280;45044;41.572;24.730;2023-02-17T10:01:58;91999.41;;;19.20;25.61
59274;BME280;45044;41.572;24.730;2023-02-17T10:04:34;92001.06;;;19.88;24.87
59274;BME280;45044;41.572;24.730;2023-02-17T10:08:04;91988.53;;;21.54;26.01
59274;BME280;45044;41.572;24.730;2023-02-17T10:10:21;91997.06;;;20.46;24.29
59274;BME280;45044;41.572;24.730;2023-02-17T10:12:54;91980.84;;;20.07;23.60
59274;BME280;45044;41.572;24.730;2023-02-17T10:15:25;91980.22;;;20.50;24.17
59274;BME280;45044;41.572;24.730;2023-02-17T10:18:03;91967.97;;;21.25;23.91
59274;BME280;45044;41.572;24.730;2023-02-17T10:20:34;91972.72;;;21.47;23.16
59274;BME280;45044;41.572;24.730;2023-02-17T10:23:21;91966.53;;;21.50;23.29
59274;BME280;45044;41.572;24.730;2023-02-17T10:32:23;91963.53;;;19.79;22.71
59274;BME280;45044;41.572;24.730;2023-02-17T10:34:54;91955.25;;;20.10;22.81
59274;BME280;45044;41.572;24.730;2023-02-17T10:40:18;91949.38;;;19.98;23.58
59274;BME280;45044;41.572;24.730;2023-02-17T10:42:47;91962.84;;;19.00;24.95
59274;BME280;45044;41.572;24.730;2023-02-17T10:45:37;91957.78;;;18.21;24.36
59274;BME280;45044;41.572;24.730;2023-02-17T10:48:17;91957.78;;;19.06;25.13
59274;BME280;45044;41.572;24.730;2023-02-17T10:50:45;91948.16;;;18.51;25.50
59274;BME280;45044;41.572;24.730;2023-02-17T10:53:15;91929.56;;;18.88;25.67
59274;BME280;45044;41.572;24.730;2023-02-17T10:56:05;91949.06;;;17.69;26.11
59274;BME280;45044;41.572;24.730;2023-02-17T11:01:09;91949.09;;;18.41;25.34
59274;BME280;45044;41.572;24.730;2023-02-17T11:03:38;91939.84;;;18.90;25.57
59274;BME280;45044;41.572;24.730;2023-02-17T11:06:20;91932.94;;;18.92;23.13
59274;BME280;45044;41.572;24.730;2023-02-17T11:08:57;91938.03;;;19.03;23.79
59274;BME280;45044;41.572;24.730;2023-02-17T11:11:30;91929.25;;;18.46;25.46
59274;BME280;45044;41.572;24.730;2023-02-17T11:14:20;91937.06;;;18.33;25.14
59274;BME280;45044;41.572;24.730;2023-02-17T11:17:03;91931.50;;;18.23;26.07
59274;BME280;45044;41.572;24.730;2023-02-17T11:19:38;91927.53;;;18.96;25.48
59274;BME280;45044;41.572;24.730;2023-02-17T11:22:26;91920.03;;;19.98;25.63
59274;BME280;45044;41.572;24.730;2023-02-17T11:25:00;91921.38;;;20.23;24.52
59274;BME280;45044;41.572;24.730;2023-02-17T11:27:27;91915.03;;;19.67;24.39
59274;BME280;45044;41.572;24.730;2023-02-17T11:30:05;91916.53;;;19.51;22.17
59274;BME280;45044;41.572;24.730;2023-02-17T11:32:32;91903.13;;;19.72;24.41
59274;BME280;45044;41.572;24.730;2023-02-17T11:34:59;91901.56;;;20.67;24.78
59274;BME280;45044;41.572;24.730;2023-02-17T11:37:31;91911.84;;;20.82;22.70
59274;BME280;45044;41.572;24.730;2023-02-17T11:40:21;91909.91;;;20.40;22.91
59274;BME280;45044;41.572;24.730;2023-02-17T11:42:56;91910.91;;;20.89;22.95
59274;BME280;45044;41.572;24.730;2023-02-17T11:45:27;91899.50;;;20.58;23.47
59274;BME280;45044;41.572;24.730;2023-02-17T11:51:21;91893.69;;;20.01;22.37
59274;BME280;45044;41.572;24.730;2023-02-17T11:54:19;91895.75;;;20.26;23.03
59274;BME280;45044;41.572;24.730;2023-02-17T12:05:52;91877.47;;;20.54;21.46
59274;BME280;45044;41.572;24.730;2023-02-17T12:09:02;91874.31;;;21.15;22.24
59274;BME280;45044;41.572;24.730;2023-02-17T12:16:59;91866.19;;;18.63;23.55
59274;BME280;45044;41.572;24.730;2023-02-17T12:19:40;91857.03;;;19.71;21.70
59274;BME280;45044;41.572;24.730;2023-02-17T12:25:14;91858.06;;;20.67;22.19
59274;BME280;45044;41.572;24.730;2023-02-17T12:35:53;91834.22;;;21.28;22.84
59274;BME280;45044;41.572;24.730;2023-02-17T12:38:31;91841.69;;;21.47;22.83
59274;BME280;45044;41.572;24.730;2023-02-17T12:41:09;91835.97;;;20.79;23.65
59274;BME280;45044;41.572;24.730;2023-02-17T12:43:43;91838.50;;;21.13;22.39
59274;BME280;45044;41.572;24.730;2023-02-17T12:46:18;91830.53;;;20.83;24.31
59274;BME280;45044;41.572;24.730;2023-02-17T12:49:02;91829.13;;;20.22;22.88
59274;BME280;45044;41.572;24.730;2023-02-17T12:51:38;91823.72;;;19.46;22.73
59274;BME280;45044;41.572;24.730;2023-02-17T12:56:58;91839.56;;;19.54;24.68
59274;BME280;45044;41.572;24.730;2023-02-17T12:59:37;91842.16;;;18.46;26.05
59274;BME280;45044;41.572;24.730;2023-02-17T13:02:16;91841.97;;;17.68;26.59
59274;BME280;45044;41.572;24.730;2023-02-17T13:04:50;91849.19;;;17.68;27.58
59274;BME280;45044;41.572;24.730;2023-02-17T13:07:38;91857.59;;;17.66;28.58
59274;BME280;45044;41.572;24.730;2023-02-17T13:10:28;91853.75;;;17.91;30.91
59274;BME280;45044;41.572;24.730;2023-02-17T13:13:11;91861.44;;;17.86;29.35
59274;BME280;45044;41.572;24.730;2023-02-17T13:15:44;91866.03;;;17.61;31.21
59274;BME280;45044;41.572;24.730;2023-02-17T13:18:29;91863.28;;;17.65;31.99
59274;BME280;45044;41.572;24.730;2023-02-17T13:23:38;91869.97;;;16.62;34.61
59274;BME280;45044;41.572;24.730;2023-02-17T13:28:47;91867.22;;;16.00;34.73
59274;BME280;45044;41.572;24.730;2023-02-17T13:31:24;91874.44;;;15.96;35.82
59274;BME280;45044;41.572;24.730;2023-02-17T13:33:57;91864.47;;;15.61;36.96
59274;BME280;45044;41.572;24.730;2023-02-17T13:38:59;91864.19;;;15.94;36.75
59274;BME280;45044;41.572;24.730;2023-02-17T13:41:47;91871.09;;;15.88;37.00
59274;BME280;45044;41.572;24.730;2023-02-17T13:44:32;91861.91;;;15.96;37.90
59274;BME280;45044;41.572;24.730;2023-02-17T13:47:02;91868.59;;;16.15;37.31
59274;BME280;45044;41.572;24.730;2023-02-17T13:49:32;91884.25;;;15.99;37.59
59274;BME280;45044;41.572;24.730;2023-02-17T13:52:15;91875.69;;;15.80;38.29
59274;BME280;45044;41.572;24.730;2023-02-17T13:57:27;91880.91;;;15.41;38.48
59274;BME280;45044;41.572;24.730;2023-02-17T14:03:55;91879.03;;;14.67;39.25
59274;BME280;45044;41.572;24.730;2023-02-17T14:06:03;91862.78;;;14.72;38.97
59274;BME280;45044;41.572;24.730;2023-02-17T14:08:41;91883.09;;;14.93;38.95
59274;BME280;45044;41.572;24.730;2023-02-17T14:11:19;91886.25;;;14.59;40.04
59274;BME280;45044;41.572;24.730;2023-02-17T14:13:49;91884.06;;;14.39;40.62
59274;BME280;45044;41.572;24.730;2023-02-17T14:16:37;91888.56;;;14.46;40.75
59274;BME280;45044;41.572;24.730;2023-02-17T14:19:17;91885.56;;;14.40;42.00
59274;BME280;45044;41.572;24.730;2023-02-17T14:24:42;91891.56;;;14.52;41.55
59274;BME280;45044;41.572;24.730;2023-02-17T14:27:09;91896.13;;;14.47;41.93
59274;BME280;45044;41.572;24.730;2023-02-17T14:29:47;91902.91;;;14.45;40.78
59274;BME280;45044;41.572;24.730;2023-02-17T14:32:35;91901.06;;;14.31;41.35
59274;BME280;45044;41.572;24.730;2023-02-17T14:37:40;91904.53;;;13.91;43.56
59274;BME280;45044;41.572;24.730;2023-02-17T14:40:16;91905.66;;;14.08;42.57
59274;BME280;45044;41.572;24.730;2023-02-17T14:42:45;91894.75;;;13.88;42.62